sensor_id;sensor_type;location;lat;lon;timestamp;pressure;altitude;pressure_sealevel;temperature;humidity
49515;BME280;35415;47.870;16.058;2024-03-29T00:02:21;96145.13;;;7.35;54.05
49515;BME280;35415;47.870;16.058;2024-03-29T00:04:47;96235.59;;;7.87;53.71
49515;BME280;35415;47.870;16.058;2024-03-29T00:07:14;96160.91;;;7.36;53.92
49515;BME280;35415;47.870;16.058;2024-03-29T00:09:40;96346.72;;;8.54;53.76
49515;BME280;35415;47.870;16.058;2024-03-29T00:12:06;96359.34;;;8.54;53.57
49515;BME280;35415;47.870;16.058;2024-03-29T00:14:34;96220.75;;;7.61;53.32
49515;BME280;35415;47.870;16.058;2024-03-29T00:17:00;96194.00;;;7.55;53.79
49515;BME280;35415;47.870;16.058;2024-03-29T00:19:26;96351.56;;;8.52;53.21
49515;BME280;35415;47.870;16.058;2024-03-29T00:21:52;96353.69;;;8.55;53.14
49515;BME280;35415;47.870;16.058;2024-03-29T00:24:18;96197.22;;;7.58;52.95
49515;BME280;35415;47.870;16.058;2024-03-29T00:26:45;96160.09;;;7.36;52.89
49515;BME280;35415;47.870;16.058;2024-03-29T00:29:11;96165.19;;;7.32;52.99
49515;BME280;35415;47.870;16.058;2024-03-29T00:31:38;96161.97;;;7.35;52.98
49515;BME280;35415;47.870;16.058;2024-03-29T00:34:04;96169.19;;;7.35;52.84
49515;BME280;35415;47.870;16.058;2024-03-29T00:36:30;96197.50;;;7.56;52.49
49515;BME280;35415;47.870;16.058;2024-03-29T00:38:56;96279.47;;;8.06;52.80
49515;BME280;35415;47.870;16.058;2024-03-29T00:41:23;96279.72;;;8.05;52.67
49515;BME280;35415;47.870;16.058;2024-03-29T00:43:49;96291.25;;;8.00;53.05
49515;BME280;35415;47.870;16.058;2024-03-29T00:46:15;96347.34;;;8.46;52.77
49515;BME280;35415;47.870;16.058;2024-03-29T00:48:42;96280.50;;;8.05;52.55
49515;BME280;35415;47.870;16.058;2024-03-29T00:51:08;96355.34;;;8.51;52.75
49515;BME280;35415;47.870;16.058;2024-03-29T00:53:34;96279.22;;;7.98;52.64
49515;BME280;35415;47.870;16.058;2024-03-29T00:56:01;96289.09;;;8.02;52.60
49515;BME280;35415;47.870;16.058;2024-03-29T00:58:27;96217.59;;;7.38;52.28
49515;BME280;35415;47.870;16.058;2024-03-29T01:00:53;96208.78;;;7.38;51.77
49515;BME280;35415;47.870;16.058;2024-03-29T01:03:19;96179.69;;;7.16;52.07
49515;BME280;35415;47.870;16.058;2024-03-29T01:05:46;96319.91;;;8.00;52.06
49515;BME280;35415;47.870;16.058;2024-03-29T01:08:12;96390.25;;;8.41;52.19
49515;BME280;35415;47.870;16.058;2024-03-29T01:10:38;96217.13;;;7.21;52.43
49515;BME280;35415;47.870;16.058;2024-03-29T01:13:05;96413.03;;;8.28;52.62
49515;BME280;35415;47.870;16.058;2024-03-29T01:15:31;96240.13;;;7.17;53.12
49515;BME280;35415;47.870;16.058;2024-03-29T01:17:57;96267.41;;;7.19;53.35
49515;BME280;35415;47.870;16.058;2024-03-29T01:20:23;96258.03;;;7.16;53.47
49515;BME280;35415;47.870;16.058;2024-03-29T01:22:50;96239.88;;;7.03;54.17
49515;BME280;35415;47.870;16.058;2024-03-29T01:25:16;96358.28;;;7.70;54.92
49515;BME280;35415;47.870;16.058;2024-03-29T01:27:43;96309.91;;;7.20;55.00
49515;BME280;35415;47.870;16.058;2024-03-29T01:30:10;96321.94;;;7.33;54.98
49515;BME280;35415;47.870;16.058;2024-03-29T01:32:36;96262.63;;;6.85;55.89
49515;BME280;35415;47.870;16.058;2024-03-29T01:35:02;96391.47;;;7.53;55.74
49515;BME280;35415;47.870;16.058;2024-03-29T01:37:28;96456.25;;;7.81;55.76
49515;BME280;35415;47.870;16.058;2024-03-29T01:39:56;96328.41;;;6.91;55.97
49515;BME280;35415;47.870;16.058;2024-03-29T01:42:22;96292.00;;;6.55;55.98
49515;BME280;35415;47.870;16.058;2024-03-29T01:44:48;96408.38;;;7.23;56.64
49515;BME280;35415;47.870;16.058;2024-03-29T01:47:16;96298.13;;;6.40;56.30
49515;BME280;35415;47.870;16.058;2024-03-29T01:49:44;96298.13;;;6.40;56.79
49515;BME280;35415;47.870;16.058;2024-03-29T01:52:12;96416.63;;;7.02;57.79
49515;BME280;35415;47.870;16.058;2024-03-29T01:54:42;96329.91;;;6.42;58.53
49515;BME280;35415;47.870;16.058;2024-03-29T01:57:12;96332.56;;;6.37;58.67
49515;BME280;35415;47.870;16.058;2024-03-29T01:59:40;96461.28;;;7.11;59.03
49515;BME280;35415;47.870;16.058;2024-03-29T02:02:11;96307.88;;;5.99;59.01
49515;BME280;35415;47.870;16.058;2024-03-29T02:04:38;96495.53;;;7.09;58.33
49515;BME280;35415;47.870;16.058;2024-03-29T02:07:06;96508.63;;;7.11;59.18
49515;BME280;35415;47.870;16.058;2024-03-29T02:09:33;96323.53;;;5.85;59.27
49515;BME280;35415;47.870;16.058;2024-03-29T02:12:00;96388.25;;;6.02;60.16
49515;BME280;35415;47.870;16.058;2024-03-29T02:14:29;96475.25;;;6.46;59.23
49515;BME280;35415;47.870;16.058;2024-03-29T02:16:55;96326.34;;;5.58;59.85
49515;BME280;35415;47.870;16.058;2024-03-29T02:19:25;96338.34;;;5.56;60.01
49515;BME280;35415;47.870;16.058;2024-03-29T02:21:54;96323.41;;;5.55;60.57
49515;BME280;35415;47.870;16.058;2024-03-29T02:24:26;96320.38;;;5.41;60.65
49515;BME280;35415;47.870;16.058;2024-03-29T02:26:54;96466.09;;;6.31;60.76
49515;BME280;35415;47.870;16.058;2024-03-29T02:29:21;96460.31;;;6.02;62.12
49515;BME280;35415;47.870;16.058;2024-03-29T02:31:50;96480.59;;;6.03;61.75
49515;BME280;35415;47.870;16.058;2024-03-29T02:34:17;96438.97;;;5.65;61.92
49515;BME280;35415;47.870;16.058;2024-03-29T02:36:44;96357.50;;;5.10;63.61
49515;BME280;35415;47.870;16.058;2024-03-29T02:39:12;96468.41;;;5.76;63.24
49515;BME280;35415;47.870;16.058;2024-03-29T02:41:40;96350.69;;;4.93;63.79
49515;BME280;35415;47.870;16.058;2024-03-29T02:44:08;96415.75;;;5.29;64.55
49515;BME280;35415;47.870;16.058;2024-03-29T02:46:36;96442.25;;;5.40;65.54
49515;BME280;35415;47.870;16.058;2024-03-29T02:49:02;96380.53;;;4.95;65.80
49515;BME280;35415;47.870;16.058;2024-03-29T02:51:29;96452.81;;;5.30;66.40
49515;BME280;35415;47.870;16.058;2024-03-29T02:53:55;96343.72;;;4.60;66.04
49515;BME280;35415;47.870;16.058;2024-03-29T02:56:22;96310.16;;;4.32;67.02
49515;BME280;35415;47.870;16.058;2024-03-29T02:58:51;96319.00;;;4.37;67.45
49515;BME280;35415;47.870;16.058;2024-03-29T03:01:18;96367.97;;;4.63;67.71
49515;BME280;35415;47.870;16.058;2024-03-29T03:03:44;96499.78;;;5.36;68.03
49515;BME280;35415;47.870;16.058;2024-03-29T03:06:12;96320.84;;;4.10;68.21
49515;BME280;35415;47.870;16.058;2024-03-29T03:08:38;96502.16;;;5.33;69.14
49515;BME280;35415;47.870;16.058;2024-03-29T03:11:23;96490.38;;;5.24;68.63
49515;BME280;35415;47.870;16.058;2024-03-29T03:13:51;96502.56;;;5.20;69.36
49515;BME280;35415;47.870;16.058;2024-03-29T03:16:18;96334.16;;;4.10;70.22
49515;BME280;35415;47.870;16.058;2024-03-29T03:18:45;96450.59;;;4.68;70.77
49515;BME280;35415;47.870;16.058;2024-03-29T03:21:11;96331.16;;;3.84;70.29
49515;BME280;35415;47.870;16.058;2024-03-29T03:23:38;96356.16;;;3.83;71.72
49515;BME280;35415;47.870;16.058;2024-03-29T03:26:04;96535.34;;;4.93;72.04
49515;BME280;35415;47.870;16.058;2024-03-29T03:28:32;96403.63;;;3.91;73.29
49515;BME280;35415;47.870;16.058;2024-03-29T03:30:59;96473.34;;;4.32;73.54
49515;BME280;35415;47.870;16.058;2024-03-29T03:33:26;96504.50;;;4.32;73.88
49515;BME280;35415;47.870;16.058;2024-03-29T03:35:53;96576.94;;;4.72;74.87
49515;BME280;35415;47.870;16.058;2024-03-29T03:38:20;96455.06;;;3.80;74.44
49515;BME280;35415;47.870;16.058;2024-03-29T03:40:46;96377.69;;;3.43;75.88
49515;BME280;35415;47.870;16.058;2024-03-29T03:43:13;96423.84;;;3.71;75.86
49515;BME280;35415;47.870;16.058;2024-03-29T03:45:40;96554.22;;;4.48;76.90
49515;BME280;35415;47.870;16.058;2024-03-29T03:48:10;96365.59;;;3.36;76.12
49515;BME280;35415;47.870;16.058;2024-03-29T03:50:37;96479.88;;;4.03;77.54
49515;BME280;35415;47.870;16.058;2024-03-29T03:53:05;96368.94;;;3.26;77.88
49515;BME280;35415;47.870;16.058;2024-03-29T03:55:31;96558.38;;;4.39;78.58
49515;BME280;35415;47.870;16.058;2024-03-29T03:58:02;96544.41;;;4.32;78.00
49515;BME280;35415;47.870;16.058;2024-03-29T04:00:28;96452.69;;;3.62;78.42
49515;BME280;35415;47.870;16.058;2024-03-29T04:02:56;96410.09;;;3.23;78.47
49515;BME280;35415;47.870;16.058;2024-03-29T04:05:24;96520.75;;;3.97;78.91
49515;BME280;35415;47.870;16.058;2024-03-29T04:07:52;96567.44;;;4.21;79.20
49515;BME280;35415;47.870;16.058;2024-03-29T04:10:18;96567.34;;;4.16;79.53
49515;BME280;35415;47.870;16.058;2024-03-29T04:12:45;96409.34;;;3.11;79.65
49515;BME280;35415;47.870;16.058;2024-03-29T04:15:11;96383.75;;;2.88;78.94
49515;BME280;35415;47.870;16.058;2024-03-29T04:17:38;96404.50;;;2.91;79.40
49515;BME280;35415;47.870;16.058;2024-03-29T04:20:05;96472.75;;;3.19;79.67
49515;BME280;35415;47.870;16.058;2024-03-29T04:22:34;96403.91;;;2.72;79.58
49515;BME280;35415;47.870;16.058;2024-03-29T04:25:00;96434.66;;;2.85;79.88
49515;BME280;35415;47.870;16.058;2024-03-29T04:27:28;96453.66;;;2.77;80.16
49515;BME280;35415;47.870;16.058;2024-03-29T04:29:54;96432.09;;;2.74;80.62
49515;BME280;35415;47.870;16.058;2024-03-29T04:32:22;96396.59;;;2.51;81.39
49515;BME280;35415;47.870;16.058;2024-03-29T04:34:48;96491.31;;;3.03;80.74
49515;BME280;35415;47.870;16.058;2024-03-29T04:37:15;96588.13;;;3.69;80.72
49515;BME280;35415;47.870;16.058;2024-03-29T04:39:45;96590.81;;;3.69;80.67
49515;BME280;35415;47.870;16.058;2024-03-29T04:42:12;96579.34;;;3.68;81.71
49515;BME280;35415;47.870;16.058;2024-03-29T04:44:40;96523.63;;;3.28;82.03
49515;BME280;35415;47.870;16.058;2024-03-29T04:47:08;96522.28;;;3.25;82.20
49515;BME280;35415;47.870;16.058;2024-03-29T04:49:35;96591.69;;;3.57;82.05
49515;BME280;35415;47.870;16.058;2024-03-29T04:52:04;96598.53;;;3.53;81.99
49515;BME280;35415;47.870;16.058;2024-03-29T04:54:31;96468.13;;;2.69;82.85
49515;BME280;35415;47.870;16.058;2024-03-29T04:57:01;96433.34;;;2.42;83.13
49515;BME280;35415;47.870;16.058;2024-03-29T04:59:31;96612.47;;;3.60;83.27
49515;BME280;35415;47.870;16.058;2024-03-29T05:01:59;96457.22;;;2.54;83.76
49515;BME280;35415;47.870;16.058;2024-03-29T05:04:27;96461.03;;;2.47;83.94
49515;BME280;35415;47.870;16.058;2024-03-29T05:06:55;96611.06;;;3.41;84.02
49515;BME280;35415;47.870;16.058;2024-03-29T05:09:23;96440.19;;;2.38;84.77
49515;BME280;35415;47.870;16.058;2024-03-29T05:11:51;96498.56;;;2.79;85.27
49515;BME280;35415;47.870;16.058;2024-03-29T05:14:20;96589.84;;;3.29;85.83
49515;BME280;35415;47.870;16.058;2024-03-29T05:16:48;96529.16;;;2.81;86.79
49515;BME280;35415;47.870;16.058;2024-03-29T05:19:16;96400.25;;;2.05;86.67
49515;BME280;35415;47.870;16.058;2024-03-29T05:21:44;96503.44;;;2.70;87.09
49515;BME280;35415;47.870;16.058;2024-03-29T05:24:11;96514.16;;;2.75;87.76
49515;BME280;35415;47.870;16.058;2024-03-29T05:26:38;96400.56;;;2.08;87.87
49515;BME280;35415;47.870;16.058;2024-03-29T05:29:06;96492.94;;;2.63;87.74
49515;BME280;35415;47.870;16.058;2024-03-29T05:31:35;96562.56;;;3.06;87.84
49515;BME280;35415;47.870;16.058;2024-03-29T05:34:02;96460.69;;;2.43;87.61
49515;BME280;35415;47.870;16.058;2024-03-29T05:36:30;96361.88;;;1.84;87.87
49515;BME280;35415;47.870;16.058;2024-03-29T05:38:57;96481.03;;;2.66;88.08
49515;BME280;35415;47.870;16.058;2024-03-29T05:41:24;96364.28;;;1.97;87.49
49515;BME280;35415;47.870;16.058;2024-03-29T05:43:52;96407.91;;;2.18;87.89
49515;BME280;35415;47.870;16.058;2024-03-29T05:46:19;96492.59;;;2.71;88.29
49515;BME280;35415;47.870;16.058;2024-03-29T05:48:48;96405.44;;;2.00;88.21
49515;BME280;35415;47.870;16.058;2024-03-29T05:51:15;96365.47;;;1.90;87.08
49515;BME280;35415;47.870;16.058;2024-03-29T05:53:42;96368.78;;;1.97;88.07
49515;BME280;35415;47.870;16.058;2024-03-29T05:56:09;96448.56;;;2.47;87.09
49515;BME280;35415;47.870;16.058;2024-03-29T05:58:37;96572.03;;;3.30;87.77
49515;BME280;35415;47.870;16.058;2024-03-29T06:01:04;96374.75;;;2.04;87.50
49515;BME280;35415;47.870;16.058;2024-03-29T06:03:32;96377.72;;;2.19;87.48
49515;BME280;35415;47.870;16.058;2024-03-29T06:06:00;96502.81;;;3.08;86.85
49515;BME280;35415;47.870;16.058;2024-03-29T06:08:28;96402.41;;;2.48;87.23
49515;BME280;35415;47.870;16.058;2024-03-29T06:10:55;96415.16;;;2.63;87.25
49515;BME280;35415;47.870;16.058;2024-03-29T06:13:22;96471.06;;;3.01;86.85
49515;BME280;35415;47.870;16.058;2024-03-29T06:16:16;96367.88;;;2.48;86.24
49515;BME280;35415;47.870;16.058;2024-03-29T06:19:00;96422.22;;;2.86;86.39
49515;BME280;35415;47.870;16.058;2024-03-29T06:21:29;96489.16;;;3.33;86.03
49515;BME280;35415;47.870;16.058;2024-03-29T06:24:04;96430.03;;;3.09;85.09
49515;BME280;35415;47.870;16.058;2024-03-29T06:26:31;96362.13;;;2.68;86.71
49515;BME280;35415;47.870;16.058;2024-03-29T06:28:59;96582.38;;;4.05;87.44
49515;BME280;35415;47.870;16.058;2024-03-29T06:31:27;96471.78;;;3.59;86.63
49515;BME280;35415;47.870;16.058;2024-03-29T06:33:54;96343.97;;;2.93;87.40
49515;BME280;35415;47.870;16.058;2024-03-29T06:36:22;96356.78;;;3.13;86.63
49515;BME280;35415;47.870;16.058;2024-03-29T06:38:50;96464.81;;;3.91;85.40
49515;BME280;35415;47.870;16.058;2024-03-29T06:41:18;96336.22;;;3.25;86.83
49515;BME280;35415;47.870;16.058;2024-03-29T06:43:45;96358.09;;;3.49;87.49
49515;BME280;35415;47.870;16.058;2024-03-29T06:46:13;96396.94;;;3.89;86.12
49515;BME280;35415;47.870;16.058;2024-03-29T06:48:41;96394.66;;;3.98;84.98
49515;BME280;35415;47.870;16.058;2024-03-29T06:51:08;96318.19;;;3.66;84.08
49515;BME280;35415;47.870;16.058;2024-03-29T06:53:35;96307.72;;;3.81;84.17
49515;BME280;35415;47.870;16.058;2024-03-29T06:56:05;96394.41;;;4.43;83.36
49515;BME280;35415;47.870;16.058;2024-03-29T06:58:33;96410.97;;;4.72;82.71
49515;BME280;35415;47.870;16.058;2024-03-29T07:01:00;96475.91;;;5.20;82.81
49515;BME280;35415;47.870;16.058;2024-03-29T07:03:28;96325.13;;;4.38;82.96
49515;BME280;35415;47.870;16.058;2024-03-29T07:05:55;96298.03;;;4.46;82.85
49515;BME280;35415;47.870;16.058;2024-03-29T07:08:22;96409.84;;;5.22;81.65
49515;BME280;35415;47.870;16.058;2024-03-29T07:10:57;96460.91;;;5.72;81.69
49515;BME280;35415;47.870;16.058;2024-03-29T07:13:28;96391.31;;;5.42;81.28
49515;BME280;35415;47.870;16.058;2024-03-29T07:15:57;96445.88;;;5.98;82.42
49515;BME280;35415;47.870;16.058;2024-03-29T07:18:24;96442.50;;;6.18;81.92
49515;BME280;35415;47.870;16.058;2024-03-29T07:20:51;96438.84;;;6.29;81.25
49515;BME280;35415;47.870;16.058;2024-03-29T07:23:19;96299.97;;;5.62;79.36
49515;BME280;35415;47.870;16.058;2024-03-29T07:25:57;96367.00;;;6.33;78.67
49515;BME280;35415;47.870;16.058;2024-03-29T07:28:27;96230.13;;;5.80;76.81
49515;BME280;35415;47.870;16.058;2024-03-29T07:30:54;96297.59;;;6.43;77.48
49515;BME280;35415;47.870;16.058;2024-03-29T07:33:23;96307.53;;;6.83;78.03
49515;BME280;35415;47.870;16.058;2024-03-29T07:35:52;96416.63;;;7.83;77.68
49515;BME280;35415;47.870;16.058;2024-03-29T07:38:19;96340.34;;;7.70;77.57
49515;BME280;35415;47.870;16.058;2024-03-29T07:40:47;96381.69;;;8.34;77.19
49515;BME280;35415;47.870;16.058;2024-03-29T07:43:14;96218.91;;;7.51;75.87
49515;BME280;35415;47.870;16.058;2024-03-29T07:45:43;96199.31;;;7.66;74.75
49515;BME280;35415;47.870;16.058;2024-03-29T07:48:12;96379.69;;;9.04;75.79
49515;BME280;35415;47.870;16.058;2024-03-29T07:50:39;96323.25;;;8.80;75.23
49515;BME280;35415;47.870;16.058;2024-03-29T07:53:07;96247.50;;;8.64;69.07
49515;BME280;35415;47.870;16.058;2024-03-29T07:55:35;96269.16;;;9.07;70.56
49515;BME280;35415;47.870;16.058;2024-03-29T07:58:03;96235.59;;;9.10;66.56
49515;BME280;35415;47.870;16.058;2024-03-29T08:00:31;96290.00;;;9.68;70.23
49515;BME280;35415;47.870;16.058;2024-03-29T08:03:01;96237.16;;;9.40;69.35
49515;BME280;35415;47.870;16.058;2024-03-29T08:05:29;96279.66;;;10.04;67.80
49515;BME280;35415;47.870;16.058;2024-03-29T08:07:57;96191.88;;;9.57;65.81
49515;BME280;35415;47.870;16.058;2024-03-29T08:10:24;96184.38;;;9.78;66.11
49515;BME280;35415;47.870;16.058;2024-03-29T08:12:51;96234.22;;;10.08;64.73
49515;BME280;35415;47.870;16.058;2024-03-29T08:15:19;96173.16;;;9.94;66.18
49515;BME280;35415;47.870;16.058;2024-03-29T08:17:46;96249.22;;;10.51;65.21
49515;BME280;35415;47.870;16.058;2024-03-29T08:20:15;96198.31;;;10.41;61.02
49515;BME280;35415;47.870;16.058;2024-03-29T08:22:43;96151.28;;;10.39;60.63
49515;BME280;35415;47.870;16.058;2024-03-29T08:25:10;96337.84;;;11.78;61.08
49515;BME280;35415;47.870;16.058;2024-03-29T08:27:37;96264.88;;;11.47;59.99
49515;BME280;35415;47.870;16.058;2024-03-29T08:30:06;96262.97;;;11.75;57.78
49515;BME280;35415;47.870;16.058;2024-03-29T08:32:34;96271.78;;;12.08;60.24
49515;BME280;35415;47.870;16.058;2024-03-29T08:35:01;96175.22;;;11.60;57.95
49515;BME280;35415;47.870;16.058;2024-03-29T08:37:30;96182.69;;;11.77;57.69
49515;BME280;35415;47.870;16.058;2024-03-29T08:39:56;96228.69;;;12.44;57.68
49515;BME280;35415;47.870;16.058;2024-03-29T08:42:23;96130.47;;;12.00;54.87
49515;BME280;35415;47.870;16.058;2024-03-29T08:44:51;96121.59;;;12.22;57.27
49515;BME280;35415;47.870;16.058;2024-03-29T08:47:18;96212.53;;;12.89;56.75
49515;BME280;35415;47.870;16.058;2024-03-29T08:49:45;96226.50;;;13.13;53.57
49515;BME280;35415;47.870;16.058;2024-03-29T08:52:13;96147.16;;;12.70;50.66
49515;BME280;35415;47.870;16.058;2024-03-29T08:54:42;96117.56;;;12.87;50.59
49515;BME280;35415;47.870;16.058;2024-03-29T08:57:09;96214.56;;;13.68;52.03
49515;BME280;35415;47.870;16.058;2024-03-29T08:59:36;96106.16;;;13.21;51.23
49515;BME280;35415;47.870;16.058;2024-03-29T09:02:04;96201.44;;;14.01;52.54
49515;BME280;35415;47.870;16.058;2024-03-29T09:04:33;96261.38;;;14.51;49.00
49515;BME280;35415;47.870;16.058;2024-03-29T09:07:03;96197.69;;;14.36;48.54
49515;BME280;35415;47.870;16.058;2024-03-29T09:09:32;96104.28;;;13.96;50.85
49515;BME280;35415;47.870;16.058;2024-03-29T09:12:00;96095.19;;;14.09;48.83
49515;BME280;35415;47.870;16.058;2024-03-29T09:14:28;96116.03;;;14.43;49.99
49515;BME280;35415;47.870;16.058;2024-03-29T09:16:55;96097.41;;;14.41;49.67
49515;BME280;35415;47.870;16.058;2024-03-29T09:19:22;96126.31;;;14.93;49.78
49515;BME280;35415;47.870;16.058;2024-03-29T09:21:50;96174.63;;;15.38;48.69
49515;BME280;35415;47.870;16.058;2024-03-29T09:24:17;96126.97;;;15.37;46.91
49515;BME280;35415;47.870;16.058;2024-03-29T09:26:48;96150.09;;;15.72;46.58
49515;BME280;35415;47.870;16.058;2024-03-29T09:29:17;96163.84;;;15.97;46.63
49515;BME280;35415;47.870;16.058;2024-03-29T09:31:46;96127.84;;;15.87;45.46
49515;BME280;35415;47.870;16.058;2024-03-29T09:34:14;96159.38;;;16.21;42.73
49515;BME280;35415;47.870;16.058;2024-03-29T09:36:41;96044.25;;;15.69;42.94
49515;BME280;35415;47.870;16.058;2024-03-29T09:39:08;96061.38;;;16.02;42.10
49515;BME280;35415;47.870;16.058;2024-03-29T09:41:36;96048.53;;;16.11;41.23
49515;BME280;35415;47.870;16.058;2024-03-29T09:44:05;96125.31;;;16.66;41.82
49515;BME280;35415;47.870;16.058;2024-03-29T09:46:34;96111.09;;;16.69;41.11
49515;BME280;35415;47.870;16.058;2024-03-29T09:49:05;96171.22;;;17.25;40.57
49515;BME280;35415;47.870;16.058;2024-03-29T09:51:34;96149.38;;;17.21;39.52
49515;BME280;35415;47.870;16.058;2024-03-29T09:54:03;96069.06;;;16.87;38.70
49515;BME280;35415;47.870;16.058;2024-03-29T09:56:33;96050.84;;;16.88;38.62
49515;BME280;35415;47.870;16.058;2024-03-29T09:59:01;96193.09;;;17.98;38.25
49515;BME280;35415;47.870;16.058;2024-03-29T10:01:30;96129.84;;;17.64;39.23
49515;BME280;35415;47.870;16.058;2024-03-29T10:04:00;96072.97;;;17.47;37.79
49515;BME280;35415;47.870;16.058;2024-03-29T10:06:29;96184.88;;;18.34;38.36
49515;BME280;35415;47.870;16.058;2024-03-29T10:08:57;96034.09;;;17.47;37.41
49515;BME280;35415;47.870;16.058;2024-03-29T10:11:25;96096.06;;;17.90;36.49
49515;BME280;35415;47.870;16.058;2024-03-29T10:13:52;96059.34;;;17.84;36.60
49515;BME280;35415;47.870;16.058;2024-03-29T10:16:20;96041.53;;;17.86;36.57
49515;BME280;35415;47.870;16.058;2024-03-29T10:18:50;96123.22;;;18.54;37.07
49515;BME280;35415;47.870;16.058;2024-03-29T10:21:24;96131.25;;;18.63;37.89
49515;BME280;35415;47.870;16.058;2024-03-29T10:23:52;96037.94;;;18.10;36.65
49515;BME280;35415;47.870;16.058;2024-03-29T10:26:20;96065.78;;;18.31;37.20
49515;BME280;35415;47.870;16.058;2024-03-29T10:28:48;96034.59;;;18.29;35.64
49515;BME280;35415;47.870;16.058;2024-03-29T10:31:17;96188.13;;;19.36;36.43
49515;BME280;35415;47.870;16.058;2024-03-29T10:33:45;96171.22;;;19.46;37.69
49515;BME280;35415;47.870;16.058;2024-03-29T10:36:13;96139.28;;;19.31;36.43
49515;BME280;35415;47.870;16.058;2024-03-29T10:38:42;96099.72;;;19.21;36.34
49515;BME280;35415;47.870;16.058;2024-03-29T10:41:10;96107.56;;;19.39;35.40
49515;BME280;35415;47.870;16.058;2024-03-29T10:43:39;96066.31;;;19.24;35.79
49515;BME280;35415;47.870;16.058;2024-03-29T10:46:10;96119.44;;;19.62;35.36
49515;BME280;35415;47.870;16.058;2024-03-29T10:48:39;96009.06;;;19.09;34.50
49515;BME280;35415;47.870;16.058;2024-03-29T10:51:07;96018.81;;;19.26;34.32
49515;BME280;35415;47.870;16.058;2024-03-29T10:53:35;96117.53;;;19.98;32.66
49515;BME280;35415;47.870;16.058;2024-03-29T10:56:07;96003.31;;;19.30;34.88
49515;BME280;35415;47.870;16.058;2024-03-29T10:58:35;96043.31;;;19.73;33.74
49515;BME280;35415;47.870;16.058;2024-03-29T11:01:05;96078.53;;;19.97;33.92
49515;BME280;35415;47.870;16.058;2024-03-29T11:03:37;96000.13;;;19.59;33.65
49515;BME280;35415;47.870;16.058;2024-03-29T11:06:06;96102.28;;;20.32;33.91
49515;BME280;35415;47.870;16.058;2024-03-29T11:08:34;96025.44;;;19.95;34.44
49515;BME280;35415;47.870;16.058;2024-03-29T11:11:07;95985.09;;;19.85;34.39
49515;BME280;35415;47.870;16.058;2024-03-29T11:13:40;96043.22;;;20.24;33.47
49515;BME280;35415;47.870;16.058;2024-03-29T11:16:11;96111.50;;;20.82;33.56
49515;BME280;35415;47.870;16.058;2024-03-29T11:18:39;96131.34;;;20.98;31.89
49515;BME280;35415;47.870;16.058;2024-03-29T11:21:07;96059.84;;;20.54;31.39
49515;BME280;35415;47.870;16.058;2024-03-29T11:23:35;96064.91;;;20.75;33.33
49515;BME280;35415;47.870;16.058;2024-03-29T11:26:03;96089.69;;;21.05;32.93
49515;BME280;35415;47.870;16.058;2024-03-29T11:28:33;96042.47;;;20.85;32.79
49515;BME280;35415;47.870;16.058;2024-03-29T11:31:02;96082.16;;;21.21;32.94
49515;BME280;35415;47.870;16.058;2024-03-29T11:33:32;96112.06;;;21.56;33.95
49515;BME280;35415;47.870;16.058;2024-03-29T11:36:00;95990.59;;;20.88;32.48
49515;BME280;35415;47.870;16.058;2024-03-29T11:38:33;96059.84;;;21.42;33.01
49515;BME280;35415;47.870;16.058;2024-03-29T11:41:02;96061.34;;;21.62;31.30
49515;BME280;35415;47.870;16.058;2024-03-29T11:43:28;96025.91;;;21.46;30.10
49515;BME280;35415;47.870;16.058;2024-03-29T11:45:58;95978.78;;;21.30;31.27
49515;BME280;35415;47.870;16.058;2024-03-29T11:48:28;95976.53;;;21.36;30.64
49515;BME280;35415;47.870;16.058;2024-03-29T11:50:56;96047.13;;;21.79;30.72
49515;BME280;35415;47.870;16.058;2024-03-29T11:53:24;95998.63;;;21.50;30.44
49515;BME280;35415;47.870;16.058;2024-03-29T11:55:53;96038.88;;;21.76;31.15
49515;BME280;35415;47.870;16.058;2024-03-29T11:58:21;95997.91;;;21.53;31.21
49515;BME280;35415;47.870;16.058;2024-03-29T12:00:49;96016.19;;;21.75;30.89
49515;BME280;35415;47.870;16.058;2024-03-29T12:03:19;95994.47;;;21.59;30.92
49515;BME280;35415;47.870;16.058;2024-03-29T12:05:49;96041.41;;;21.88;31.07
49515;BME280;35415;47.870;16.058;2024-03-29T12:08:17;96087.94;;;22.14;30.64
49515;BME280;35415;47.870;16.058;2024-03-29T12:10:45;96091.88;;;22.17;30.98
49515;BME280;35415;47.870;16.058;2024-03-29T12:13:15;95963.75;;;21.43;32.18
49515;BME280;35415;47.870;16.058;2024-03-29T12:15:43;96016.09;;;21.68;31.50
49515;BME280;35415;47.870;16.058;2024-03-29T12:18:11;95962.50;;;21.37;31.46
49515;BME280;35415;47.870;16.058;2024-03-29T12:20:40;96040.31;;;21.96;32.02
49515;BME280;35415;47.870;16.058;2024-03-29T12:23:08;96034.81;;;21.92;32.02
49515;BME280;35415;47.870;16.058;2024-03-29T12:25:37;96085.72;;;22.24;30.68
49515;BME280;35415;47.870;16.058;2024-03-29T12:28:05;96034.81;;;21.92;31.09
49515;BME280;35415;47.870;16.058;2024-03-29T12:30:33;95983.53;;;21.59;30.94
49515;BME280;35415;47.870;16.058;2024-03-29T12:33:02;96095.75;;;22.42;31.10
49515;BME280;35415;47.870;16.058;2024-03-29T12:35:29;95963.25;;;21.64;30.79
49515;BME280;35415;47.870;16.058;2024-03-29T12:38:00;96056.78;;;22.26;30.95
49515;BME280;35415;47.870;16.058;2024-03-29T12:40:28;95928.97;;;21.44;30.66
49515;BME280;35415;47.870;16.058;2024-03-29T12:42:58;96089.53;;;22.49;31.34
49515;BME280;35415;47.870;16.058;2024-03-29T12:45:26;96073.00;;;22.38;30.72
49515;BME280;35415;47.870;16.058;2024-03-29T12:47:53;95967.78;;;21.83;31.34
49515;BME280;35415;47.870;16.058;2024-03-29T12:50:25;96059.03;;;22.50;30.88
49515;BME280;35415;47.870;16.058;2024-03-29T12:52:53;96081.22;;;22.72;30.88
49515;BME280;35415;47.870;16.058;2024-03-29T12:55:22;95990.84;;;22.08;30.76
49515;BME280;35415;47.870;16.058;2024-03-29T12:57:50;96015.78;;;22.03;31.44
49515;BME280;35415;47.870;16.058;2024-03-29T13:00:20;95951.69;;;21.78;31.24
49515;BME280;35415;47.870;16.058;2024-03-29T13:02:47;95970.31;;;21.95;31.09